createdAt,value
2023-04-30T00:00:43.932Z,92.16
2023-04-30T00:01:43.877Z,91.74
2023-04-30T00:02:43.957Z,92.46
2023-04-30T00:03:43.844Z,92.36
2023-04-30T00:04:44.432Z,92.61
2023-04-30T00:05:43.674Z,92.92
2023-04-30T00:06:43.702Z,93.43
2023-04-30T00:07:43.597Z,93.12
2023-04-30T00:08:43.642Z,93.43
2023-04-30T00:09:43.535Z,93.33
2023-04-30T00:10:43.499Z,93.43
2023-04-30T00:11:43.460Z,93.23
2023-04-30T00:12:43.420Z,93.43
2023-04-30T00:13:43.390Z,92.82
2023-04-30T00:14:44.515Z,92.82
2023-04-30T00:15:43.318Z,92.61
2023-04-30T00:16:43.377Z,92.34
2023-04-30T00:17:43.309Z,92.55
2023-04-30T00:18:43.286Z,92.34
2023-04-30T00:19:43.178Z,92.34
2023-04-30T00:20:43.280Z,92.24
2023-04-30T00:21:43.125Z,92.24
2023-04-30T00:22:43.090Z,92.34
2023-04-30T00:23:43.035Z,91.83
2023-04-30T00:24:43.003Z,91.62
2023-04-30T00:25:43.516Z,92.18
2023-04-30T00:26:43.014Z,91.77
2023-04-30T00:27:42.904Z,91.42
2023-04-30T00:28:42.871Z,91.42
2023-04-30T00:29:42.826Z,91.42
2023-04-30T00:30:42.797Z,91.62
2023-04-30T00:31:42.823Z,91.83
2023-04-30T00:32:42.852Z,91.56
2023-04-30T00:33:42.685Z,91.56
2023-04-30T00:34:42.656Z,91.15
2023-04-30T00:35:42.634Z,91.97
2023-04-30T00:36:42.585Z,91.66
2023-04-30T00:37:42.549Z,91.87
2023-04-30T00:38:42.574Z,91.60
2023-04-30T00:39:42.482Z,91.05
2023-04-30T00:40:42.446Z,91.25
2023-04-30T00:41:42.416Z,91.15
2023-04-30T00:42:42.379Z,91.19
2023-04-30T00:43:42.370Z,91.40
2023-04-30T00:44:42.375Z,91.09
2023-04-30T00:45:42.303Z,91.40
2023-04-30T00:46:42.227Z,90.99
2023-04-30T00:47:42.253Z,91.40
2023-04-30T00:48:42.163Z,91.40
2023-04-30T00:49:42.112Z,91.64
2023-04-30T00:50:42.153Z,91.85
2023-04-30T00:51:42.061Z,91.48
2023-04-30T00:52:42.012Z,91.89
2023-04-30T00:53:41.983Z,91.69
2023-04-30T00:54:41.937Z,91.89
2023-04-30T00:55:41.912Z,92.00
2023-04-30T00:56:41.938Z,92.25
2023-04-30T00:57:41.839Z,92.14
2023-04-30T00:58:41.812Z,92.55
2023-04-30T00:59:41.771Z,92.86
2023-04-30T01:00:41.736Z,92.40
2023-04-30T01:01:41.796Z,93.12
2023-04-30T01:02:41.882Z,92.40
2023-04-30T01:03:41.688Z,92.29
2023-04-30T01:04:41.592Z,93.32
2023-04-30T01:05:41.563Z,93.12
2023-04-30T01:06:41.650Z,92.85
2023-04-30T01:07:41.474Z,92.95
2023-04-30T01:08:41.524Z,92.74
2023-04-30T01:09:41.420Z,93.16
2023-04-30T01:10:41.388Z,92.95
2023-04-30T01:11:41.371Z,93.16
2023-04-30T01:12:41.325Z,93.68
2023-04-30T01:13:41.265Z,93.05
2023-04-30T01:14:41.311Z,92.95
2023-04-30T01:15:41.401Z,92.50
2023-04-30T01:16:41.166Z,92.08
2023-04-30T01:17:41.167Z,92.08
2023-04-30T01:18:41.190Z,92.08
2023-04-30T01:19:41.049Z,92.19
2023-04-30T01:20:41.088Z,92.19
2023-04-30T01:21:40.979Z,91.88
2023-04-30T01:22:40.956Z,91.77
2023-04-30T01:23:40.921Z,91.98
2023-04-30T01:24:40.894Z,91.98
2023-04-30T01:25:40.846Z,91.46
2023-04-30T01:26:40.878Z,92.08
2023-04-30T01:27:40.769Z,91.77
2023-04-30T01:28:40.736Z,91.67
2023-04-30T01:29:40.709Z,91.98
2023-04-30T01:30:40.708Z,91.92
2023-04-30T01:31:40.669Z,92.54
2023-04-30T01:32:40.675Z,92.13
2023-04-30T01:33:40.561Z,92.74
2023-04-30T01:34:40.528Z,92.68
2023-04-30T01:35:40.481Z,92.38
2023-04-30T01:36:40.443Z,92.99
2023-04-30T01:37:40.417Z,93.72
2023-04-30T01:38:40.452Z,92.89
2023-04-30T01:39:40.347Z,92.89
2023-04-30T01:40:40.305Z,93.20
2023-04-30T01:41:40.282Z,93.62
2023-04-30T01:42:40.254Z,93.87
2023-04-30T01:43:40.250Z,93.76
2023-04-30T01:44:40.160Z,93.66
2023-04-30T01:45:40.175Z,94.18
2023-04-30T01:46:40.111Z,94.48
2023-04-30T01:47:40.080Z,94.79
2023-04-30T01:48:40.038Z,94.48
2023-04-30T01:49:40.043Z,94.59
2023-04-30T01:50:39.952Z,94.73
2023-04-30T01:51:39.914Z,94.73
2023-04-30T01:52:39.887Z,95.56
2023-04-30T01:53:39.843Z,95.81
2023-04-30T01:54:39.865Z,95.61
2023-04-30T01:55:39.770Z,95.50
2023-04-30T01:56:39.741Z,96.06
2023-04-30T01:57:39.694Z,95.44
2023-04-30T01:58:39.669Z,96.06
2023-04-30T01:59:39.633Z,96.52
2023-04-30T02:00:39.643Z,97.14
2023-04-30T02:01:39.574Z,98.28
2023-04-30T02:02:39.661Z,98.80
2023-04-30T02:03:39.607Z,98.91
2023-04-30T02:04:39.454Z,98.85
2023-04-30T02:05:39.474Z,99.26
2023-04-30T02:06:39.478Z,99.99
2023-04-30T02:07:39.355Z,99.99
2023-04-30T02:08:39.310Z,99.99
2023-04-30T02:09:39.268Z,99.99
2023-04-30T02:10:39.234Z,99.99
2023-04-30T02:11:39.254Z,99.99
2023-04-30T02:12:39.162Z,99.99
2023-04-30T02:13:39.117Z,99.99
2023-04-30T02:14:39.081Z,99.99
2023-04-30T02:15:39.053Z,99.99
2023-04-30T02:16:39.124Z,99.99
2023-04-30T02:17:39.086Z,99.99
2023-04-30T02:18:38.955Z,99.64
2023-04-30T02:19:38.895Z,99.74
2023-04-30T02:20:38.869Z,99.99
2023-04-30T02:21:38.847Z,99.99
2023-04-30T02:22:38.794Z,99.99
2023-04-30T02:23:38.817Z,99.99
2023-04-30T02:24:38.743Z,99.95
2023-04-30T02:25:38.686Z,99.99
2023-04-30T02:26:38.650Z,99.99
2023-04-30T02:27:38.618Z,99.99
2023-04-30T02:28:38.586Z,99.99
2023-04-30T02:29:38.605Z,99.99
2023-04-30T02:30:38.544Z,99.99
2023-04-30T02:31:38.529Z,99.99
2023-04-30T02:32:38.587Z,99.99
2023-04-30T02:33:38.406Z,99.85
2023-04-30T02:34:38.363Z,99.99
2023-04-30T02:35:38.384Z,99.80
2023-04-30T02:36:38.303Z,99.95
2023-04-30T02:37:38.250Z,99.64
2023-04-30T02:38:38.221Z,99.85
2023-04-30T02:39:38.225Z,99.64
2023-04-30T02:40:38.162Z,99.74
2023-04-30T02:41:38.169Z,99.95
2023-04-30T02:42:38.065Z,99.74
2023-04-30T02:43:38.041Z,99.54
2023-04-30T02:44:37.995Z,99.85
2023-04-30T02:45:37.987Z,99.74
2023-04-30T02:46:37.927Z,99.99
2023-04-30T02:47:37.972Z,99.99
2023-04-30T02:48:37.847Z,99.99
2023-04-30T02:49:37.812Z,99.99
2023-04-30T02:50:37.784Z,99.99
2023-04-30T02:51:37.751Z,99.99
2023-04-30T02:52:37.703Z,99.74
2023-04-30T02:53:37.733Z,99.99
2023-04-30T02:54:37.642Z,99.85
2023-04-30T02:55:37.608Z,99.99
2023-04-30T02:56:37.605Z,99.99
2023-04-30T02:57:37.519Z,99.90
2023-04-30T02:58:37.490Z,99.74
2023-04-30T02:59:37.537Z,99.99
2023-04-30T03:00:37.425Z,99.99
2023-04-30T03:01:37.535Z,99.99
2023-04-30T03:02:37.488Z,99.99
2023-04-30T03:03:37.351Z,99.99
2023-04-30T03:04:37.369Z,99.99
2023-04-30T03:05:37.251Z,99.99
2023-04-30T03:06:37.263Z,99.95
2023-04-30T03:07:37.173Z,99.85
2023-04-30T03:08:37.120Z,99.99
2023-04-30T03:09:37.142Z,99.74
2023-04-30T03:10:37.059Z,99.54
2023-04-30T03:11:37.019Z,99.54
2023-04-30T03:12:36.988Z,99.74
2023-04-30T03:13:36.955Z,99.33
2023-04-30T03:14:36.899Z,99.23
2023-04-30T03:15:36.911Z,99.13
2023-04-30T03:16:36.857Z,99.23
2023-04-30T03:17:36.823Z,98.61
2023-04-30T03:18:36.826Z,98.82
2023-04-30T03:19:36.725Z,99.23
2023-04-30T03:20:36.936Z,99.33
2023-04-30T03:21:36.653Z,99.13
2023-04-30T03:22:36.617Z,99.13
2023-04-30T03:23:36.591Z,98.92
2023-04-30T03:24:36.553Z,98.92
2023-04-30T03:25:36.602Z,98.92
2023-04-30T03:26:36.469Z,99.07
2023-04-30T03:27:36.430Z,99.43
2023-04-30T03:28:36.404Z,99.33
2023-04-30T03:29:36.373Z,99.58
2023-04-30T03:30:36.394Z,99.99
2023-04-30T03:31:36.384Z,99.74
2023-04-30T03:32:36.267Z,99.64
2023-04-30T03:33:36.276Z,99.43
2023-04-30T03:34:36.188Z,98.86
2023-04-30T03:35:36.134Z,98.82
2023-04-30T03:36:36.158Z,99.13
2023-04-30T03:37:36.096Z,99.33
2023-04-30T03:38:36.052Z,99.02
2023-04-30T03:39:35.996Z,99.02
2023-04-30T03:40:35.962Z,99.27
2023-04-30T03:41:35.944Z,99.07
2023-04-30T03:42:35.946Z,99.07
2023-04-30T03:43:35.867Z,98.92
2023-04-30T03:44:35.821Z,98.71
2023-04-30T03:45:35.771Z,98.55
2023-04-30T03:46:35.822Z,99.02
2023-04-30T03:47:35.730Z,98.71
2023-04-30T03:48:35.720Z,98.82
2023-04-30T03:49:35.625Z,98.82
2023-04-30T03:50:35.599Z,98.61
2023-04-30T03:51:35.575Z,98.09
2023-04-30T03:52:35.527Z,98.30
2023-04-30T03:53:35.493Z,98.09
2023-04-30T03:54:35.500Z,97.67
2023-04-30T03:55:35.421Z,97.99
2023-04-30T03:56:35.438Z,97.78
2023-04-30T03:57:35.347Z,97.78
2023-04-30T03:58:35.351Z,97.88
2023-04-30T03:59:35.304Z,98.09
2023-04-30T04:00:35.233Z,98.19
2023-04-30T04:01:35.341Z,97.47
2023-04-30T04:02:35.173Z,97.22
2023-04-30T04:03:35.167Z,97.01
2023-04-30T04:04:35.104Z,96.20
2023-04-30T04:05:35.046Z,95.74
2023-04-30T04:06:35.088Z,94.71
2023-04-30T04:07:35.030Z,93.94
2023-04-30T04:08:34.949Z,92.70
2023-04-30T04:09:34.915Z,92.25
2023-04-30T04:10:34.883Z,92.35
2023-04-30T04:11:34.869Z,92.04
2023-04-30T04:12:34.890Z,91.73
2023-04-30T04:13:34.765Z,92.19
2023-04-30T04:14:34.735Z,92.19
2023-04-30T04:15:34.716Z,91.98
2023-04-30T04:16:34.906Z,91.63
2023-04-30T04:17:34.703Z,91.24
2023-04-30T04:18:34.580Z,89.54
2023-04-30T04:19:34.540Z,88.68
2023-04-30T04:20:34.588Z,87.92
2023-04-30T04:21:34.489Z,87.46
2023-04-30T04:22:34.495Z,86.64
2023-04-30T04:23:34.424Z,86.37
2023-04-30T04:24:34.372Z,86.79
2023-04-30T04:25:34.335Z,86.43
2023-04-30T04:26:34.300Z,86.54
2023-04-30T04:27:34.315Z,85.68
2023-04-30T04:28:34.230Z,85.06
2023-04-30T04:29:34.180Z,84.85
2023-04-30T04:30:34.163Z,84.44
2023-04-30T04:31:34.181Z,84.91
2023-04-30T04:32:34.194Z,84.47
2023-04-30T04:33:34.048Z,82.89
2023-04-30T04:34:34.035Z,83.09
2023-04-30T04:35:33.995Z,82.75
2023-04-30T04:36:33.953Z,81.82
2023-04-30T04:37:33.965Z,81.30
2023-04-30T04:38:33.873Z,81.30
2023-04-30T04:39:33.838Z,81.71
2023-04-30T04:40:33.812Z,82.03
2023-04-30T04:41:33.765Z,81.96
2023-04-30T04:42:33.745Z,82.37
2023-04-30T04:43:33.765Z,83.44
2023-04-30T04:44:33.677Z,83.68
2023-04-30T04:45:33.776Z,84.71
2023-04-30T04:46:33.729Z,85.06
2023-04-30T04:47:33.601Z,84.61
2023-04-30T04:48:33.534Z,85.06
2023-04-30T04:49:33.593Z,85.06
2023-04-30T04:50:33.460Z,85.36
2023-04-30T04:51:33.431Z,85.16
2023-04-30T04:52:33.400Z,85.47
2023-04-30T04:53:34.854Z,84.85
2023-04-30T04:54:33.321Z,85.53
2023-04-30T04:55:33.346Z,84.47
2023-04-30T04:56:33.251Z,85.12
2023-04-30T04:57:33.243Z,84.36
2023-04-30T04:58:33.195Z,83.29
2023-04-30T04:59:33.146Z,83.05
2023-04-30T05:00:33.184Z,83.09
2023-04-30T05:01:33.149Z,83.62
2023-04-30T05:02:33.118Z,85.10
2023-04-30T05:03:33.071Z,86.21
2023-04-30T05:04:32.970Z,87.73
2023-04-30T05:05:32.949Z,89.28
2023-04-30T05:06:33.014Z,89.73
2023-04-30T05:07:32.914Z,89.73
2023-04-30T05:08:32.832Z,90.80
2023-04-30T05:09:32.832Z,91.11
2023-04-30T05:10:32.780Z,91.46
2023-04-30T05:11:32.744Z,91.56
2023-04-30T05:12:32.760Z,91.88
2023-04-30T05:13:33.417Z,91.67
2023-04-30T05:14:32.637Z,92.19
2023-04-30T05:15:32.585Z,92.29
2023-04-30T05:16:32.688Z,92.19
2023-04-30T05:17:32.548Z,91.88
2023-04-30T05:18:32.573Z,91.77
2023-04-30T05:19:32.460Z,92.29
2023-04-30T05:20:32.420Z,91.98
2023-04-30T05:21:32.389Z,92.08
2023-04-30T05:22:32.394Z,92.29
2023-04-30T05:23:32.326Z,92.25
2023-04-30T05:24:32.341Z,91.73
2023-04-30T05:25:32.272Z,91.88
2023-04-30T05:26:32.207Z,91.98
2023-04-30T05:27:32.172Z,91.67
2023-04-30T05:28:32.157Z,91.98
2023-04-30T05:29:32.163Z,91.36
2023-04-30T05:30:32.065Z,91.36
2023-04-30T05:31:32.101Z,91.77
2023-04-30T05:32:32.036Z,91.36
2023-04-30T05:33:31.964Z,91.56
2023-04-30T05:34:31.934Z,91.36
2023-04-30T05:35:31.958Z,91.32
2023-04-30T05:36:31.856Z,91.52
2023-04-30T05:37:31.834Z,91.01
2023-04-30T05:38:31.884Z,91.22
2023-04-30T05:39:31.760Z,91.32
2023-04-30T05:40:31.713Z,90.70
2023-04-30T05:41:31.749Z,90.49
2023-04-30T05:42:31.641Z,90.28
2023-04-30T05:43:31.611Z,91.16
2023-04-30T05:44:31.577Z,90.53
2023-04-30T05:45:31.613Z,90.80
2023-04-30T05:46:31.498Z,90.28
2023-04-30T05:47:31.518Z,90.59
2023-04-30T05:48:31.554Z,89.67
2023-04-30T05:49:32.770Z,89.77
2023-04-30T05:50:31.360Z,90.59
2023-04-30T05:51:31.329Z,90.04
2023-04-30T05:52:31.295Z,89.01
2023-04-30T05:53:31.395Z,89.52
2023-04-30T05:54:31.222Z,89.83
2023-04-30T05:55:31.184Z,89.94
2023-04-30T05:56:31.157Z,89.52
2023-04-30T05:57:31.124Z,90.14
2023-04-30T05:58:31.074Z,89.62
2023-04-30T05:59:31.118Z,89.94
2023-04-30T06:00:31.017Z,89.69
2023-04-30T06:01:31.047Z,88.76
2023-04-30T06:02:31.049Z,88.76
2023-04-30T06:03:30.932Z,88.90
2023-04-30T06:04:30.879Z,87.98
2023-04-30T06:05:30.891Z,88.59
2023-04-30T06:06:30.819Z,89.11
2023-04-30T06:07:30.873Z,88.45
2023-04-30T06:08:30.729Z,87.32
2023-04-30T06:09:30.690Z,87.11
2023-04-30T06:10:30.661Z,88.56
2023-04-30T06:11:30.622Z,88.35
2023-04-30T06:12:30.592Z,87.93
2023-04-30T06:13:30.633Z,88.14
2023-04-30T06:14:30.607Z,87.42
2023-04-30T06:15:30.483Z,87.83
2023-04-30T06:16:30.505Z,88.14
2023-04-30T06:17:30.468Z,87.01
2023-04-30T06:18:30.431Z,87.73
2023-04-30T06:19:30.338Z,87.90
2023-04-30T06:20:30.362Z,87.27
2023-04-30T06:21:30.284Z,86.45
2023-04-30T06:22:30.231Z,86.45
2023-04-30T06:23:30.243Z,86.80
2023-04-30T06:24:30.152Z,87.11
2023-04-30T06:25:30.126Z,87.32
2023-04-30T06:26:30.106Z,86.60
2023-04-30T06:27:30.058Z,87.42
2023-04-30T06:28:30.021Z,86.80
2023-04-30T06:29:30.073Z,87.27
2023-04-30T06:30:30.444Z,87.07
2023-04-30T06:31:29.999Z,86.66
2023-04-30T06:32:30.561Z,86.97
2023-04-30T06:33:29.851Z,86.97
2023-04-30T06:34:29.805Z,86.87
2023-04-30T06:35:29.817Z,87.13
2023-04-30T06:36:29.733Z,87.48
2023-04-30T06:37:30.635Z,86.61
2023-04-30T06:38:29.668Z,86.97
2023-04-30T06:39:29.631Z,86.41
2023-04-30T06:40:29.597Z,86.21
2023-04-30T06:41:29.640Z,85.49
2023-04-30T06:42:29.527Z,86.00
2023-04-30T06:43:29.502Z,85.63
2023-04-30T06:44:29.935Z,85.73
2023-04-30T06:45:29.412Z,86.24
2023-04-30T06:46:29.401Z,85.89
2023-04-30T06:47:29.444Z,86.24
2023-04-30T06:48:29.342Z,86.61
2023-04-30T06:49:29.956Z,86.61
2023-04-30T06:50:29.232Z,86.21
2023-04-30T06:51:29.269Z,85.86
2023-04-30T06:52:29.303Z,85.03
2023-04-30T06:53:29.211Z,84.93
2023-04-30T06:54:29.113Z,85.03
2023-04-30T06:55:29.074Z,84.58
2023-04-30T06:56:29.030Z,83.65
2023-04-30T06:57:29.001Z,83.49
2023-04-30T06:58:28.968Z,83.65
2023-04-30T06:59:29.128Z,83.45
2023-04-30T07:00:28.894Z,83.92
2023-04-30T07:01:28.914Z,82.90
2023-04-30T07:02:29.145Z,83.20
2023-04-30T07:03:28.834Z,82.18
2023-04-30T07:04:28.751Z,81.91
2023-04-30T07:05:28.712Z,81.29
2023-04-30T07:06:28.719Z,81.19
2023-04-30T07:07:28.646Z,81.35
2023-04-30T07:08:28.672Z,81.15
2023-04-30T07:09:28.572Z,81.46
2023-04-30T07:10:28.543Z,81.32
2023-04-30T07:11:28.520Z,81.83
2023-04-30T07:12:28.492Z,81.28
2023-04-30T07:13:28.482Z,80.25
2023-04-30T07:14:28.396Z,79.57
2023-04-30T07:15:28.382Z,79.98
2023-04-30T07:16:28.365Z,80.05
2023-04-30T07:17:28.347Z,79.05
2023-04-30T07:18:28.315Z,78.13
2023-04-30T07:19:28.266Z,78.54
2023-04-30T07:20:28.190Z,78.61
2023-04-30T07:21:28.171Z,78.71
2023-04-30T07:22:28.127Z,78.40
2023-04-30T07:23:29.923Z,78.71
2023-04-30T07:24:28.071Z,78.92
2023-04-30T07:25:28.017Z,78.50
2023-04-30T07:26:27.996Z,78.57
2023-04-30T07:27:28.023Z,78.57
2023-04-30T07:28:28.008Z,78.09
2023-04-30T07:29:27.882Z,78.71
2023-04-30T07:30:27.850Z,78.36
2023-04-30T07:31:27.909Z,77.85
2023-04-30T07:32:27.771Z,77.65
2023-04-30T07:33:27.810Z,78.16
2023-04-30T07:34:27.780Z,77.44
2023-04-30T07:35:27.678Z,76.51
2023-04-30T07:36:27.646Z,76.42
2023-04-30T07:37:27.643Z,76.31
2023-04-30T07:38:27.641Z,75.08
2023-04-30T07:39:27.617Z,75.49
2023-04-30T07:40:36.007Z,75.29
2023-04-30T07:41:27.462Z,75.29
2023-04-30T07:42:27.471Z,76.31
2023-04-30T07:43:28.151Z,77.03
2023-04-30T07:44:27.425Z,76.72
2023-04-30T07:45:27.332Z,76.62
2023-04-30T07:46:27.388Z,76.93
2023-04-30T07:47:27.283Z,76.51
2023-04-30T07:48:27.237Z,76.51
2023-04-30T07:49:27.197Z,76.51
2023-04-30T07:50:27.231Z,76.42
2023-04-30T07:51:27.141Z,76.31
2023-04-30T07:52:27.097Z,76.48
2023-04-30T07:53:27.060Z,76.89
2023-04-30T07:54:27.031Z,76.62
2023-04-30T07:55:26.991Z,76.72
2023-04-30T07:56:27.005Z,77.03
2023-04-30T07:57:26.940Z,77.75
2023-04-30T07:58:26.892Z,77.13
2023-04-30T07:59:26.908Z,77.23
2023-04-30T08:00:26.814Z,76.31
2023-04-30T08:01:26.819Z,76.62
2023-04-30T08:02:26.910Z,76.76
2023-04-30T08:03:26.850Z,77.85
2023-04-30T08:04:26.907Z,76.82
2023-04-30T08:05:26.655Z,76.42
2023-04-30T08:06:26.634Z,76.31
2023-04-30T08:07:26.584Z,76.42
2023-04-30T08:08:26.633Z,76.21
2023-04-30T08:09:26.524Z,76.31
2023-04-30T08:10:26.473Z,75.80
2023-04-30T08:11:26.458Z,75.29
2023-04-30T08:12:26.412Z,76.28
2023-04-30T08:13:26.386Z,76.21
2023-04-30T08:14:26.402Z,76.48
2023-04-30T08:15:26.732Z,75.49
2023-04-30T08:16:26.327Z,75.18
2023-04-30T08:17:26.261Z,75.59
2023-04-30T08:18:26.199Z,75.49
2023-04-30T08:19:26.169Z,75.90
2023-04-30T08:20:26.192Z,74.74
2023-04-30T08:21:26.103Z,73.10
2023-04-30T08:22:26.066Z,73.30
2023-04-30T08:23:26.041Z,73.40
2023-04-30T08:24:26.006Z,73.91
2023-04-30T08:25:25.963Z,74.43
2023-04-30T08:26:25.986Z,76.07
2023-04-30T08:27:25.891Z,74.22
2023-04-30T08:28:25.885Z,73.10
2023-04-30T08:29:25.834Z,72.99
2023-04-30T08:30:25.814Z,73.19
2023-04-30T08:31:25.814Z,73.30
2023-04-30T08:32:25.928Z,72.06
2023-04-30T08:33:25.688Z,72.58
2023-04-30T08:34:25.700Z,71.45
2023-04-30T08:35:25.625Z,72.48
2023-04-30T08:36:25.614Z,72.58
2023-04-30T08:37:25.643Z,72.48
2023-04-30T08:38:26.994Z,70.73
2023-04-30T08:39:25.494Z,70.73
2023-04-30T08:40:38.283Z,71.04
2023-04-30T08:41:25.418Z,71.21
2023-04-30T08:42:25.397Z,69.67
2023-04-30T08:43:25.397Z,69.47
2023-04-30T08:44:25.368Z,70.32
2023-04-30T08:45:25.280Z,69.78
2023-04-30T08:46:25.278Z,70.18
2023-04-30T08:47:25.239Z,70.18
2023-04-30T08:48:25.188Z,70.29
2023-04-30T08:49:25.243Z,70.36
2023-04-30T08:50:25.112Z,69.95
2023-04-30T08:51:25.077Z,69.26
2023-04-30T08:52:25.055Z,69.47
2023-04-30T08:53:25.011Z,69.67
2023-04-30T08:54:25.023Z,69.57
2023-04-30T08:55:24.926Z,70.29
2023-04-30T08:56:25.557Z,71.28
2023-04-30T08:57:24.871Z,70.77
2023-04-30T08:58:24.862Z,70.15
2023-04-30T08:59:24.829Z,70.77
2023-04-30T09:00:24.822Z,70.36
2023-04-30T09:01:24.737Z,70.05
2023-04-30T09:02:24.752Z,68.92
2023-04-30T09:03:24.860Z,69.02
2023-04-30T09:04:24.622Z,68.72
2023-04-30T09:05:24.638Z,68.00
2023-04-30T09:06:24.685Z,68.00
2023-04-30T09:07:24.532Z,67.79
2023-04-30T09:08:24.484Z,67.90
2023-04-30T09:09:24.448Z,69.23
2023-04-30T09:10:24.503Z,68.17
2023-04-30T09:11:24.449Z,67.76
2023-04-30T09:12:24.372Z,68.27
2023-04-30T09:13:24.321Z,70.02
2023-04-30T09:14:24.285Z,66.33
2023-04-30T09:15:24.264Z,66.16
2023-04-30T09:16:24.578Z,66.74
2023-04-30T09:17:24.264Z,67.25
2023-04-30T09:18:24.155Z,66.94
2023-04-30T09:19:24.118Z,67.76
2023-04-30T09:20:24.108Z,67.66
2023-04-30T09:21:24.096Z,68.07
2023-04-30T09:22:24.023Z,66.94
2023-04-30T09:23:24.038Z,67.66
2023-04-30T09:24:23.937Z,67.22
2023-04-30T09:25:23.908Z,67.56
2023-04-30T09:26:23.875Z,67.73
2023-04-30T09:27:23.845Z,68.96
2023-04-30T09:28:23.964Z,68.32
2023-04-30T09:29:24.012Z,68.76
2023-04-30T09:30:23.733Z,67.94
2023-04-30T09:31:23.719Z,68.62
2023-04-30T09:32:23.735Z,69.95
2023-04-30T09:33:23.644Z,66.64
2023-04-30T09:34:23.606Z,65.83
2023-04-30T09:35:23.651Z,65.52
2023-04-30T09:36:24.474Z,64.09
2023-04-30T09:37:23.507Z,65.11
2023-04-30T09:38:23.464Z,63.57
2023-04-30T09:39:23.433Z,63.17
2023-04-30T09:40:23.392Z,63.57
2023-04-30T09:41:23.519Z,63.37
2023-04-30T09:42:23.477Z,63.26
2023-04-30T09:43:23.295Z,63.17
2023-04-30T09:44:23.275Z,61.83
2023-04-30T09:45:23.231Z,61.01
2023-04-30T09:46:23.266Z,60.84
2023-04-30T09:47:23.244Z,60.74
2023-04-30T09:48:23.200Z,61.45
2023-04-30T09:49:23.098Z,61.76
2023-04-30T09:50:23.056Z,62.07
2023-04-30T09:51:23.115Z,62.04
2023-04-30T09:52:23.051Z,61.93
2023-04-30T09:53:22.968Z,62.07
2023-04-30T09:54:22.926Z,62.88
2023-04-30T09:55:22.895Z,62.96
2023-04-30T09:56:22.857Z,64.29
2023-04-30T09:57:22.828Z,62.83
2023-04-30T09:58:22.862Z,61.73
2023-04-30T09:59:22.765Z,61.93
2023-04-30T10:00:22.731Z,62.42
2023-04-30T10:01:22.826Z,63.95
2023-04-30T10:02:22.913Z,62.35
2023-04-30T10:03:22.620Z,63.85
2023-04-30T10:04:22.715Z,62.62
2023-04-30T10:05:22.554Z,62.73
2023-04-30T10:06:22.566Z,62.55
2023-04-30T10:07:22.970Z,60.81
2023-04-30T10:08:22.455Z,62.04
2023-04-30T10:09:22.424Z,61.60
2023-04-30T10:10:22.441Z,62.11
2023-04-30T10:11:22.349Z,61.19
2023-04-30T10:12:22.317Z,61.29
2023-04-30T10:13:22.313Z,62.93
2023-04-30T10:14:22.253Z,62.11
2023-04-30T10:15:22.212Z,62.55
2023-04-30T10:16:22.314Z,62.85
2023-04-30T10:17:22.249Z,62.76
2023-04-30T10:18:22.129Z,62.52
2023-04-30T10:19:22.087Z,64.36
2023-04-30T10:20:22.063Z,62.55
2023-04-30T10:21:22.037Z,61.80
2023-04-30T10:22:22.045Z,62.35
2023-04-30T10:23:21.969Z,63.13
2023-04-30T10:24:21.920Z,62.62
2023-04-30T10:25:21.890Z,61.60
2023-04-30T10:26:21.850Z,62.52
2023-04-30T10:27:21.834Z,62.83
2023-04-30T10:28:21.830Z,64.16
2023-04-30T10:29:21.753Z,64.23
2023-04-30T10:30:21.709Z,64.13
2023-04-30T10:31:21.683Z,64.13
2023-04-30T10:32:21.715Z,64.03
2023-04-30T10:33:21.645Z,64.03
2023-04-30T10:34:21.646Z,63.69
2023-04-30T10:35:21.542Z,63.18
2023-04-30T10:36:21.515Z,62.87
2023-04-30T10:37:21.524Z,63.48
2023-04-30T10:38:21.460Z,64.20
2023-04-30T10:39:21.425Z,64.10
2023-04-30T10:40:21.442Z,64.10
2023-04-30T10:41:21.344Z,63.59
2023-04-30T10:42:21.992Z,62.36
2023-04-30T10:43:21.274Z,62.57
2023-04-30T10:44:21.246Z,63.28
2023-04-30T10:45:21.214Z,63.15
2023-04-30T10:46:21.286Z,62.43
2023-04-30T10:47:21.170Z,62.33
2023-04-30T10:48:21.110Z,61.72
2023-04-30T10:49:21.073Z,61.51
2023-04-30T10:50:21.047Z,62.54
2023-04-30T10:51:21.029Z,63.15
2023-04-30T10:52:21.038Z,63.56
2023-04-30T10:53:20.937Z,64.27
2023-04-30T10:54:20.909Z,63.35
2023-04-30T10:55:20.881Z,63.04
2023-04-30T10:56:20.844Z,66.11
2023-04-30T10:57:20.817Z,63.76
2023-04-30T10:58:20.843Z,63.45
2023-04-30T10:59:20.742Z,63.48
2023-04-30T11:00:20.714Z,63.86
2023-04-30T11:01:20.774Z,64.68
2023-04-30T11:02:20.705Z,64.37
2023-04-30T11:03:20.608Z,63.66
2023-04-30T11:04:20.654Z,63.96
2023-04-30T11:05:20.655Z,64.27
2023-04-30T11:06:20.586Z,63.32
2023-04-30T11:07:20.478Z,61.79
2023-04-30T11:08:20.461Z,62.51
2023-04-30T11:09:20.407Z,62.40
2023-04-30T11:10:20.600Z,62.40
2023-04-30T11:11:20.344Z,62.81
2023-04-30T11:12:20.368Z,62.30
2023-04-30T11:13:20.311Z,63.02
2023-04-30T11:14:20.267Z,63.32
2023-04-30T11:15:20.229Z,63.83
2023-04-30T11:16:20.324Z,63.90
2023-04-30T11:17:20.243Z,63.19
2023-04-30T11:18:20.115Z,61.73
2023-04-30T11:19:20.087Z,61.94
2023-04-30T11:20:20.075Z,61.73
2023-04-30T11:21:20.009Z,60.85
2023-04-30T11:22:20.041Z,61.35
2023-04-30T11:23:28.533Z,61.46
2023-04-30T11:24:19.921Z,62.78
2023-04-30T11:25:19.888Z,61.73
2023-04-30T11:26:19.860Z,60.10
2023-04-30T11:27:19.823Z,60.71
2023-04-30T11:28:19.861Z,61.22
2023-04-30T11:29:19.791Z,60.21
2023-04-30T11:30:19.718Z,60.00
2023-04-30T11:31:19.732Z,60.74
2023-04-30T11:32:19.694Z,61.53
2023-04-30T11:33:19.634Z,60.82
2023-04-30T11:34:19.646Z,61.83
2023-04-30T11:35:19.570Z,61.66
2023-04-30T11:36:19.513Z,61.73
2023-04-30T11:37:19.498Z,61.22
2023-04-30T11:38:19.461Z,61.02
2023-04-30T11:39:19.424Z,61.60
2023-04-30T11:40:19.450Z,60.89
2023-04-30T11:41:19.354Z,59.46
2023-04-30T11:42:19.335Z,60.89
2023-04-30T11:43:19.283Z,58.23
2023-04-30T11:44:19.264Z,58.75
2023-04-30T11:45:19.226Z,57.52
2023-04-30T11:46:19.347Z,59.16
2023-04-30T11:47:19.153Z,58.21
2023-04-30T11:48:19.121Z,58.85
2023-04-30T11:49:19.095Z,58.11
2023-04-30T11:50:19.078Z,60.58
2023-04-30T11:51:19.143Z,59.33
2023-04-30T11:52:18.992Z,58.41
2023-04-30T11:53:18.966Z,57.42
2023-04-30T11:54:18.933Z,58.14
2023-04-30T11:55:18.893Z,58.54
2023-04-30T11:56:18.870Z,59.28
2023-04-30T11:57:18.892Z,60.30
2023-04-30T11:58:18.801Z,60.17
2023-04-30T11:59:18.786Z,60.78
2023-04-30T12:00:18.769Z,61.71
2023-04-30T12:01:18.703Z,61.68
2023-04-30T12:02:18.726Z,60.63
2023-04-30T12:03:18.812Z,60.42
2023-04-30T12:04:18.643Z,60.63
2023-04-30T12:05:18.574Z,59.94
2023-04-30T12:06:18.545Z,60.17
2023-04-30T12:07:19.512Z,60.38
2023-04-30T12:08:18.486Z,60.28
2023-04-30T12:09:18.520Z,58.85
2023-04-30T12:10:18.437Z,60.17
2023-04-30T12:11:18.376Z,60.28
2023-04-30T12:12:18.368Z,59.16
2023-04-30T12:13:18.320Z,59.03
2023-04-30T12:14:18.281Z,58.21
2023-04-30T12:15:18.305Z,57.80
2023-04-30T12:16:18.247Z,57.06
2023-04-30T12:17:18.185Z,58.11
2023-04-30T12:18:18.148Z,58.82
2023-04-30T12:19:18.107Z,59.20
2023-04-30T12:20:18.077Z,59.74
2023-04-30T12:21:18.098Z,60.12
2023-04-30T12:22:18.031Z,59.53
2023-04-30T12:23:17.987Z,59.53
2023-04-30T12:24:17.959Z,59.41
2023-04-30T12:25:17.964Z,60.22
2023-04-30T12:26:17.933Z,59.33
2023-04-30T12:27:17.916Z,60.22
2023-04-30T12:28:17.816Z,62.36
2023-04-30T12:29:17.846Z,60.83
2023-04-30T12:30:17.753Z,60.76
2023-04-30T12:31:17.736Z,60.22
2023-04-30T12:32:17.784Z,60.22
2023-04-30T12:33:17.749Z,60.53
2023-04-30T12:34:17.615Z,60.12
2023-04-30T12:35:17.605Z,61.54
2023-04-30T12:36:17.557Z,60.83
2023-04-30T12:37:17.552Z,60.09
2023-04-30T12:38:17.566Z,59.99
2023-04-30T12:39:17.454Z,58.15
2023-04-30T12:40:17.427Z,58.36
2023-04-30T12:41:17.409Z,59.51
2023-04-30T12:42:17.355Z,59.10
2023-04-30T12:43:17.393Z,59.43
2023-04-30T12:44:17.303Z,59.41
2023-04-30T12:45:17.294Z,60.02
2023-04-30T12:46:17.282Z,59.43
2023-04-30T12:47:17.241Z,60.32
2023-04-30T12:48:17.274Z,59.68
2023-04-30T12:49:17.152Z,59.48
2023-04-30T12:50:17.096Z,58.76
2023-04-30T12:51:17.065Z,59.38
2023-04-30T12:52:17.046Z,60.09